createdAt,value
2019-05-15T00:01:55.339Z,7.36
2019-05-15T00:04:25.522Z,7.32
2019-05-15T00:06:58.119Z,7.30
2019-05-15T00:09:28.667Z,7.20
2019-05-15T00:11:59.169Z,7.12
2019-05-15T00:14:30.040Z,7.14
2019-05-15T00:17:00.198Z,7.11
2019-05-15T00:19:30.942Z,7.13
2019-05-15T00:22:01.133Z,6.99
2019-05-15T00:24:31.582Z,7.10
2019-05-15T00:27:02.485Z,7.07
2019-05-15T00:29:32.697Z,7.05
2019-05-15T00:32:03.709Z,6.99
2019-05-15T00:34:34.045Z,7.01
2019-05-15T00:37:04.133Z,7.04
2019-05-15T00:39:34.252Z,7.04
2019-05-15T00:42:04.371Z,6.92
2019-05-15T00:44:34.493Z,6.84
2019-05-15T00:47:04.702Z,6.66
2019-05-15T00:49:38.098Z,6.61
2019-05-15T00:52:11.950Z,6.56
2019-05-15T00:54:39.426Z,6.49
2019-05-15T00:57:09.561Z,6.41
2019-05-15T00:59:40.903Z,6.39
2019-05-15T01:02:12.095Z,6.42
2019-05-15T01:04:43.307Z,6.45
2019-05-15T01:07:15.470Z,6.50
2019-05-15T01:09:48.543Z,6.48
2019-05-15T01:12:21.690Z,6.26
2019-05-15T01:14:52.044Z,6.26
2019-05-15T01:17:22.328Z,6.23
2019-05-15T01:19:52.875Z,6.17
2019-05-15T01:22:23.233Z,6.19
2019-05-15T01:24:53.794Z,6.03
2019-05-15T01:27:24.272Z,6.15
2019-05-15T01:29:54.675Z,6.10
2019-05-15T01:32:25.029Z,6.09
2019-05-15T01:34:55.306Z,6.10
2019-05-15T01:37:25.523Z,6.08
2019-05-15T01:39:57.997Z,6.05
2019-05-15T01:42:28.095Z,5.99
2019-05-15T01:44:59.034Z,5.95
2019-05-15T01:47:29.285Z,5.93
2019-05-15T01:49:59.425Z,5.94
2019-05-15T01:52:30.737Z,5.87
2019-05-15T01:55:00.906Z,5.77
2019-05-15T01:57:31.100Z,5.76
2019-05-15T02:00:02.794Z,5.78
2019-05-15T02:02:33.064Z,5.60
2019-05-15T02:05:05.072Z,5.72
2019-05-15T02:07:36.137Z,5.67
2019-05-15T02:10:09.160Z,5.68
2019-05-15T02:12:39.477Z,5.70
2019-05-15T02:15:10.720Z,5.66
2019-05-15T02:17:42.760Z,5.57
2019-05-15T02:20:13.038Z,5.61
2019-05-15T02:22:43.430Z,5.56
2019-05-15T02:25:13.782Z,5.52
2019-05-15T02:27:44.063Z,5.37
2019-05-15T02:30:24.221Z,5.47
2019-05-15T02:32:49.868Z,5.46
2019-05-15T02:35:19.707Z,5.43
2019-05-15T02:37:51.790Z,5.28
2019-05-15T02:40:22.795Z,5.18
2019-05-15T02:42:54.981Z,5.30
2019-05-15T02:45:25.066Z,5.30
2019-05-15T02:48:00.227Z,5.32
2019-05-15T02:50:32.035Z,5.26
2019-05-15T02:53:02.665Z,5.14
2019-05-15T02:55:40.600Z,5.09
2019-05-15T02:58:10.893Z,5.11
2019-05-15T03:00:48.395Z,5.10
2019-05-15T03:03:12.834Z,5.09
2019-05-15T03:05:44.254Z,4.92
2019-05-15T03:08:14.398Z,4.84
2019-05-15T03:10:49.787Z,4.91
2019-05-15T03:13:20.241Z,4.92
2019-05-15T03:15:50.347Z,4.87
2019-05-15T03:18:20.469Z,4.71
2019-05-15T03:20:53.343Z,4.65
2019-05-15T03:23:29.174Z,4.65
2019-05-15T03:26:02.997Z,4.61
2019-05-15T03:28:29.656Z,4.55
2019-05-15T03:31:22.348Z,4.62
2019-05-15T03:33:36.410Z,4.66
2019-05-15T03:36:03.948Z,4.63
2019-05-15T03:38:39.604Z,4.65
2019-05-15T03:41:10.721Z,4.67
2019-05-15T03:43:41.167Z,4.57
2019-05-15T03:46:11.794Z,4.66
2019-05-15T03:48:42.257Z,4.62
2019-05-15T03:51:13.143Z,4.53
2019-05-15T03:53:49.470Z,4.30
2019-05-15T03:56:19.606Z,4.29
2019-05-15T03:58:49.889Z,4.51
2019-05-15T04:01:30.246Z,4.61
2019-05-15T04:03:52.506Z,4.66
2019-05-15T04:06:29.620Z,4.66
2019-05-15T04:08:59.175Z,4.68
2019-05-15T04:11:29.654Z,4.71
2019-05-15T04:14:02.638Z,4.73
2019-05-15T04:16:32.829Z,4.80
2019-05-15T04:19:03.528Z,4.76
2019-05-15T04:21:34.590Z,4.72
2019-05-15T04:24:15.211Z,4.54
2019-05-15T04:26:48.715Z,4.73
2019-05-15T04:29:19.621Z,4.78
2019-05-15T04:31:59.816Z,4.83
2019-05-15T04:34:29.019Z,4.70
2019-05-15T04:37:01.756Z,4.59
2019-05-15T04:39:34.746Z,4.62
2019-05-15T04:42:15.574Z,4.72
2019-05-15T04:44:45.952Z,4.70
2019-05-15T04:47:19.257Z,4.78
2019-05-15T04:49:50.694Z,4.89
2019-05-15T04:52:23.008Z,4.97
2019-05-15T04:54:53.233Z,4.82
2019-05-15T04:57:23.560Z,4.84
2019-05-15T04:59:54.442Z,4.91
2019-05-15T05:02:27.102Z,4.91
2019-05-15T05:04:58.847Z,5.02
2019-05-15T05:07:32.216Z,4.92
2019-05-15T05:10:02.749Z,5.02
2019-05-15T05:12:43.408Z,5.14
2019-05-15T05:15:20.921Z,5.17
2019-05-15T05:17:51.945Z,5.23
2019-05-15T05:20:48.483Z,5.23
2019-05-15T05:23:23.947Z,5.26
2019-05-15T05:25:58.628Z,5.39
2019-05-15T05:28:29.123Z,5.46
2019-05-15T05:31:02.603Z,5.52
2019-05-15T05:33:33.315Z,5.60
2019-05-15T05:36:03.661Z,5.63
2019-05-15T05:38:34.210Z,5.70
2019-05-15T05:41:04.931Z,5.75
2019-05-15T05:43:38.095Z,5.83
2019-05-15T05:46:09.271Z,5.86
2019-05-15T05:48:39.951Z,5.96
2019-05-15T05:51:10.244Z,6.06
2019-05-15T05:53:40.549Z,6.12
2019-05-15T05:56:10.712Z,6.19
2019-05-15T05:58:41.555Z,6.22
2019-05-15T06:01:11.937Z,6.26
2019-05-15T06:03:42.096Z,6.29
2019-05-15T06:06:18.625Z,6.38
2019-05-15T06:08:49.890Z,6.45
2019-05-15T06:11:20.255Z,6.47
2019-05-15T06:13:52.602Z,6.57
2019-05-15T06:16:22.433Z,6.61
2019-05-15T06:18:52.651Z,6.68
2019-05-15T06:21:22.870Z,6.77
2019-05-15T06:24:06.269Z,6.84
2019-05-15T06:26:38.580Z,6.92
2019-05-15T06:29:09.156Z,6.97
2019-05-15T06:31:39.357Z,7.10
2019-05-15T06:34:10.791Z,7.15
2019-05-15T06:36:42.515Z,7.20
2019-05-15T06:39:12.948Z,7.27
2019-05-15T06:41:43.351Z,7.34
2019-05-15T06:44:15.235Z,7.43
2019-05-15T06:46:45.405Z,7.53
2019-05-15T06:49:17.850Z,7.59
2019-05-15T06:51:48.811Z,7.70
2019-05-15T06:54:19.707Z,7.75
2019-05-15T06:56:49.977Z,7.83
2019-05-15T06:59:20.434Z,7.89
2019-05-15T07:01:50.957Z,7.99
2019-05-15T07:04:21.231Z,8.06
2019-05-15T07:06:51.409Z,8.16
2019-05-15T07:09:21.658Z,8.25
2019-05-15T07:11:52.223Z,8.35
2019-05-15T07:14:23.573Z,8.40
2019-05-15T07:16:53.973Z,8.46
2019-05-15T07:19:24.222Z,8.52
2019-05-15T07:21:54.473Z,8.61
2019-05-15T07:24:25.737Z,8.66
2019-05-15T07:26:59.041Z,8.71
2019-05-15T07:29:30.657Z,8.81
2019-05-15T07:32:00.777Z,8.76
2019-05-15T07:34:31.063Z,8.79
2019-05-15T07:37:04.121Z,8.88
2019-05-15T07:39:34.462Z,8.96
2019-05-15T07:42:08.584Z,9.05
2019-05-15T07:44:40.949Z,9.17
2019-05-15T07:47:19.334Z,9.13
2019-05-15T07:49:49.774Z,9.14
2019-05-15T07:52:20.060Z,9.27
2019-05-15T07:54:50.501Z,9.30
2019-05-15T07:57:20.648Z,9.33
2019-05-15T07:59:50.816Z,9.42
2019-05-15T08:02:22.269Z,9.49
2019-05-15T08:04:53.010Z,9.54
2019-05-15T08:07:25.136Z,9.60
2019-05-15T08:09:58.844Z,9.62
2019-05-15T08:12:28.309Z,9.74
2019-05-15T08:14:58.586Z,9.85
2019-05-15T08:17:29.959Z,9.86
2019-05-15T08:20:00.263Z,9.91
2019-05-15T08:22:31.012Z,9.95
2019-05-15T08:25:07.670Z,10.14
2019-05-15T08:27:40.008Z,10.16
2019-05-15T08:30:13.808Z,10.30
2019-05-15T08:32:44.105Z,10.41
2019-05-15T08:35:19.350Z,10.57
2019-05-15T08:37:50.116Z,10.79
2019-05-15T08:40:21.567Z,10.89
2019-05-15T08:42:57.257Z,10.92
2019-05-15T08:45:24.065Z,11.00
2019-05-15T08:47:54.390Z,11.20
2019-05-15T08:50:25.142Z,11.30
2019-05-15T08:52:57.872Z,11.28
2019-05-15T08:55:28.169Z,11.18
2019-05-15T08:58:07.556Z,11.16
2019-05-15T09:00:30.314Z,11.24
2019-05-15T09:03:00.512Z,11.59
2019-05-15T09:05:31.993Z,11.50
2019-05-15T09:08:03.363Z,11.66
2019-05-15T09:10:34.092Z,11.91
2019-05-15T09:13:04.246Z,12.05
2019-05-15T09:15:39.590Z,12.18
2019-05-15T09:18:15.988Z,12.45
2019-05-15T09:20:42.467Z,12.47
2019-05-15T09:23:12.610Z,12.33
2019-05-15T09:25:43.194Z,12.25
2019-05-15T09:28:13.375Z,12.36
2019-05-15T09:30:48.132Z,12.78
2019-05-15T09:33:20.083Z,13.09
2019-05-15T09:35:58.329Z,13.30
2019-05-15T09:38:28.996Z,13.50
2019-05-15T09:40:59.339Z,13.88
2019-05-15T09:43:30.681Z,13.93
2019-05-15T09:46:00.948Z,13.58
2019-05-15T09:48:33.702Z,13.34
2019-05-15T09:51:04.055Z,13.30
2019-05-15T09:53:34.228Z,13.53
2019-05-15T09:56:04.491Z,13.26
2019-05-15T09:58:34.767Z,13.22
2019-05-15T10:01:04.953Z,13.15
2019-05-15T10:03:39.115Z,12.65
2019-05-15T10:06:09.059Z,12.57
2019-05-15T10:08:39.932Z,12.40
2019-05-15T10:11:10.293Z,12.38
2019-05-15T10:13:40.544Z,12.50
2019-05-15T10:16:10.641Z,13.00
2019-05-15T10:18:40.834Z,13.22
2019-05-15T10:21:10.989Z,12.96
2019-05-15T10:23:41.201Z,13.11
2019-05-15T10:26:14.269Z,13.59
2019-05-15T10:28:43.305Z,13.94
2019-05-15T10:31:13.491Z,13.92
2019-05-15T10:33:43.605Z,14.17
2019-05-15T10:36:13.687Z,14.21
2019-05-15T10:38:44.829Z,14.20
2019-05-15T10:41:15.398Z,14.10
2019-05-15T10:43:55.964Z,14.47
2019-05-15T10:46:19.521Z,14.57
2019-05-15T10:48:49.755Z,14.81
2019-05-15T10:51:19.941Z,14.94
2019-05-15T10:53:50.962Z,14.97
2019-05-15T10:56:24.479Z,15.15
2019-05-15T10:58:54.769Z,15.05
2019-05-15T11:01:24.944Z,14.76
2019-05-15T11:03:55.210Z,14.85
2019-05-15T11:06:25.502Z,15.38
2019-05-15T11:08:58.191Z,15.28
2019-05-15T11:11:27.566Z,15.39
2019-05-15T11:14:00.363Z,15.83
2019-05-15T11:16:30.370Z,15.81
2019-05-15T11:19:00.638Z,15.92
2019-05-15T11:21:30.783Z,16.20
2019-05-15T11:24:00.910Z,16.74
2019-05-15T11:26:33.563Z,16.74
2019-05-15T11:29:03.334Z,16.66
2019-05-15T11:31:33.421Z,16.54
2019-05-15T11:34:03.541Z,16.45
2019-05-15T11:36:33.733Z,16.22
2019-05-15T11:39:05.619Z,15.69
2019-05-15T11:41:38.574Z,15.33
2019-05-15T11:44:09.041Z,15.17
2019-05-15T11:46:39.372Z,15.17
2019-05-15T11:49:09.642Z,15.28
2019-05-15T11:51:45.079Z,15.48
2019-05-15T11:54:15.689Z,16.02
2019-05-15T11:56:48.994Z,16.22
2019-05-15T11:59:19.032Z,16.41
2019-05-15T12:01:49.184Z,16.63
2019-05-15T12:04:30.250Z,16.51
2019-05-15T12:07:01.582Z,16.74
2019-05-15T12:09:24.135Z,16.49
2019-05-15T12:11:54.424Z,16.57
2019-05-15T12:14:25.640Z,16.81
2019-05-15T12:17:07.105Z,17.04
2019-05-15T12:19:29.358Z,16.88
2019-05-15T12:22:00.008Z,16.80
2019-05-15T12:24:35.248Z,16.92
2019-05-15T12:27:13.884Z,17.11
2019-05-15T12:29:35.026Z,16.87
2019-05-15T12:32:23.504Z,16.84
2019-05-15T12:34:38.847Z,17.06
2019-05-15T12:37:09.955Z,17.15
2019-05-15T12:39:41.067Z,17.04
2019-05-15T13:00:02.154Z,16.95
2019-05-15T13:02:34.222Z,17.20
2019-05-15T13:05:05.197Z,17.40
2019-05-15T13:07:35.395Z,16.94
2019-05-15T13:10:08.670Z,16.49
2019-05-15T13:12:55.315Z,16.53
2019-05-15T13:15:11.180Z,16.44
2019-05-15T13:17:44.139Z,16.58
2019-05-15T13:20:14.822Z,16.41
2019-05-15T13:25:18.815Z,16.61
2019-05-15T13:27:49.873Z,16.75
2019-05-15T13:30:21.348Z,16.57
2019-05-15T13:32:53.087Z,16.23
2019-05-15T13:35:23.298Z,15.98
2019-05-15T13:37:58.606Z,15.75
2019-05-15T13:40:38.105Z,15.86
2019-05-15T13:43:08.266Z,16.20
2019-05-15T13:45:42.592Z,16.33
2019-05-15T13:48:12.727Z,16.77
2019-05-15T13:50:43.161Z,16.72
2019-05-15T13:53:13.324Z,16.72
2019-05-15T13:55:43.596Z,16.75
2019-05-15T13:58:14.123Z,16.96
2019-05-15T14:00:48.982Z,17.05
2019-05-15T14:03:18.613Z,17.10
2019-05-15T14:05:49.904Z,17.23
2019-05-15T14:08:20.308Z,17.28
2019-05-15T14:10:50.926Z,16.73
2019-05-15T14:13:22.631Z,16.66
2019-05-15T14:15:55.136Z,16.53
2019-05-15T14:18:30.082Z,16.71
2019-05-15T14:21:00.482Z,16.81
2019-05-15T14:23:31.098Z,16.56
2019-05-15T14:26:15.121Z,16.07
2019-05-15T14:28:38.800Z,15.84
2019-05-15T14:31:09.801Z,15.81
2019-05-15T14:33:40.516Z,15.82
2019-05-15T14:36:12.687Z,15.82
2019-05-15T14:38:44.383Z,15.93
2019-05-15T14:41:19.029Z,16.06
2019-05-15T14:43:49.676Z,16.08
2019-05-15T14:46:23.039Z,16.18
2019-05-15T14:48:53.264Z,16.22
2019-05-15T14:51:24.951Z,16.27
2019-05-15T14:53:58.336Z,16.40
2019-05-15T14:56:28.268Z,16.43
2019-05-15T14:58:58.698Z,16.43
2019-05-15T15:01:29.074Z,16.64
2019-05-15T15:03:59.297Z,16.84
2019-05-15T15:06:31.034Z,17.17
2019-05-15T15:09:03.959Z,17.67
2019-05-15T15:11:38.354Z,17.65
2019-05-15T15:14:08.568Z,18.09
2019-05-15T15:16:40.056Z,18.45
2019-05-15T15:19:10.303Z,18.63
2019-05-15T15:21:41.113Z,18.49
2019-05-15T15:24:11.313Z,18.96
2019-05-15T15:26:41.568Z,18.88
2019-05-15T15:29:14.902Z,18.03
2019-05-15T15:31:45.033Z,17.38
2019-05-15T15:34:15.834Z,17.41
2019-05-15T15:36:48.439Z,17.78
2019-05-15T15:39:18.596Z,18.29
2019-05-15T15:41:48.778Z,18.41
2019-05-15T15:44:19.974Z,18.19
2019-05-15T15:46:50.344Z,17.29
2019-05-15T15:49:21.606Z,16.93
2019-05-15T15:51:51.775Z,16.64
2019-05-15T15:54:22.039Z,16.59
2019-05-15T15:56:55.853Z,16.74
2019-05-15T15:59:28.812Z,16.94
2019-05-15T16:02:09.491Z,17.25
2019-05-15T16:04:41.777Z,18.30
2019-05-15T16:07:18.451Z,18.46
2019-05-15T16:09:53.316Z,17.83
2019-05-15T16:12:24.351Z,17.51
2019-05-15T16:14:54.533Z,17.21
2019-05-15T16:17:24.723Z,16.65
2019-05-15T16:19:57.001Z,16.66
2019-05-15T16:22:28.368Z,16.35
2019-05-15T16:25:02.155Z,16.37
2019-05-15T16:27:30.678Z,16.21
2019-05-15T16:30:01.034Z,16.48
2019-05-15T16:32:32.154Z,16.61
2019-05-15T16:35:03.736Z,16.56
2019-05-15T16:37:34.948Z,16.47
2019-05-15T16:40:05.796Z,16.37
2019-05-15T16:42:39.287Z,16.50
2019-05-15T16:45:09.983Z,16.71
2019-05-15T16:47:40.565Z,16.51
2019-05-15T16:50:18.043Z,16.71
2019-05-15T16:52:49.970Z,16.81
2019-05-15T16:55:23.875Z,16.80
2019-05-15T16:57:53.968Z,16.74
2019-05-15T17:00:24.146Z,16.52
2019-05-15T17:03:08.571Z,16.46
2019-05-15T17:05:29.109Z,16.55
2019-05-15T17:07:59.426Z,16.33
2019-05-15T17:10:29.680Z,16.47
2019-05-15T17:13:03.666Z,16.48
2019-05-15T17:15:38.372Z,16.21
2019-05-15T17:18:08.945Z,16.08
2019-05-15T17:20:39.307Z,16.11
2019-05-15T17:23:11.599Z,15.99
2019-05-15T17:25:43.259Z,16.06
2019-05-15T17:28:18.491Z,16.10
2019-05-15T17:30:49.511Z,16.01
2019-05-15T17:33:19.710Z,15.79
2019-05-15T17:35:53.032Z,15.48
2019-05-15T17:38:23.508Z,15.38
2019-05-15T17:40:58.937Z,15.30
2019-05-15T17:43:30.523Z,15.45
2019-05-15T17:46:01.499Z,15.27
2019-05-15T17:48:31.968Z,15.15
2019-05-15T17:51:06.269Z,15.16
2019-05-15T17:53:40.539Z,15.07
2019-05-15T17:56:14.750Z,14.89
2019-05-15T17:58:44.859Z,14.87
2019-05-15T18:01:16.085Z,14.81
2019-05-15T18:03:48.564Z,14.59
2019-05-15T18:06:19.126Z,14.48
2019-05-15T18:08:49.415Z,14.44
2019-05-15T18:11:20.421Z,14.28
2019-05-15T18:13:50.521Z,14.24
2019-05-15T18:16:20.775Z,14.28
2019-05-15T18:18:51.469Z,14.14
2019-05-15T18:21:22.732Z,14.06
2019-05-15T18:23:55.060Z,14.14
2019-05-15T18:26:25.236Z,14.06
2019-05-15T18:28:55.350Z,13.93
2019-05-15T18:31:25.633Z,13.96
2019-05-15T18:33:55.902Z,13.92
2019-05-15T18:36:30.391Z,13.91
2019-05-15T18:39:01.454Z,13.79
2019-05-15T18:41:32.844Z,13.74
2019-05-15T18:44:03.506Z,13.69
2019-05-15T18:46:34.702Z,13.70
2019-05-15T18:49:06.053Z,13.71
2019-05-15T18:51:42.855Z,13.43
2019-05-15T18:54:12.972Z,13.55
2019-05-15T18:56:43.116Z,13.63
2019-05-15T18:59:13.293Z,13.55
2019-05-15T19:01:44.365Z,13.48
2019-05-15T19:04:14.824Z,13.45
2019-05-15T19:06:50.037Z,13.34
2019-05-15T19:09:23.842Z,13.22
2019-05-15T19:11:58.183Z,13.19
2019-05-15T19:14:28.865Z,13.09
2019-05-15T19:16:59.310Z,13.09
2019-05-15T19:19:30.721Z,13.02
2019-05-15T19:22:01.586Z,13.06
2019-05-15T19:24:31.695Z,12.98
2019-05-15T19:27:01.968Z,13.07
2019-05-15T19:29:32.383Z,13.05
2019-05-15T19:32:02.679Z,12.93
2019-05-15T19:34:33.993Z,13.03
2019-05-15T19:37:05.266Z,13.02
2019-05-15T19:39:35.524Z,13.01
2019-05-15T19:42:11.625Z,12.92
2019-05-15T19:44:42.112Z,12.97
2019-05-15T19:47:12.883Z,12.96
2019-05-15T19:49:48.358Z,12.85
2019-05-15T19:52:20.904Z,12.87
2019-05-15T19:54:54.701Z,12.83
2019-05-15T19:57:30.879Z,12.90
2019-05-15T20:00:08.827Z,12.81
2019-05-15T20:02:40.456Z,12.68
2019-05-15T20:05:10.792Z,12.71
2019-05-15T20:07:41.250Z,12.72
2019-05-15T20:10:15.105Z,12.69
2019-05-15T20:12:47.943Z,12.66
2019-05-15T20:15:22.428Z,12.66
2019-05-15T20:17:53.894Z,12.57
2019-05-15T20:20:24.198Z,12.62
2019-05-15T20:22:54.554Z,12.52
2019-05-15T20:25:24.693Z,12.48
2019-05-15T20:27:55.035Z,12.55
2019-05-15T20:30:25.247Z,12.48
2019-05-15T20:32:58.489Z,12.40
2019-05-15T20:35:29.951Z,12.38
2019-05-15T20:38:00.303Z,12.36
2019-05-15T20:40:30.679Z,12.34
2019-05-15T20:43:01.065Z,12.23
2019-05-15T20:45:31.351Z,12.15
2019-05-15T20:48:01.501Z,12.17
2019-05-15T20:50:31.586Z,12.12
2019-05-15T20:53:01.889Z,12.11
2019-05-15T20:55:32.247Z,12.15
2019-05-15T20:58:02.558Z,12.09
2019-05-15T21:00:33.330Z,12.11
2019-05-15T21:03:03.416Z,12.07
2019-05-15T21:05:33.625Z,12.01
2019-05-15T21:08:03.812Z,11.92
2019-05-15T21:10:33.916Z,11.92
2019-05-15T21:13:04.255Z,11.98
2019-05-15T21:15:36.649Z,11.98
2019-05-15T21:18:14.665Z,11.96
2019-05-15T21:20:38.986Z,12.00
2019-05-15T21:23:09.268Z,11.98
2019-05-15T21:25:40.260Z,11.96
2019-05-15T21:28:10.428Z,11.94
2019-05-15T21:30:41.208Z,11.97
2019-05-15T21:33:11.422Z,11.96
2019-05-15T21:35:41.609Z,11.91
2019-05-15T21:38:11.879Z,11.77
2019-05-15T21:40:42.136Z,11.84
2019-05-15T21:43:13.897Z,11.81
2019-05-15T21:45:44.096Z,11.78
2019-05-15T21:48:15.279Z,11.79
2019-05-15T21:50:45.447Z,11.70
2019-05-15T21:53:17.620Z,11.74
2019-05-15T21:55:50.698Z,11.63
2019-05-15T21:58:20.999Z,11.56
2019-05-15T22:00:54.158Z,11.76
2019-05-15T22:03:28.523Z,11.60
2019-05-15T22:05:58.966Z,11.69
2019-05-15T22:08:29.169Z,11.62
2019-05-15T22:10:59.699Z,11.54
2019-05-15T22:13:31.605Z,11.44
2019-05-15T22:16:01.840Z,11.35
2019-05-15T22:18:31.998Z,11.40
2019-05-15T22:21:02.315Z,11.47
2019-05-15T22:23:33.522Z,11.42
2019-05-15T22:26:03.636Z,11.42
2019-05-15T22:28:33.797Z,11.48
2019-05-15T22:31:03.908Z,11.48
2019-05-15T22:33:34.002Z,11.45
2019-05-15T22:36:04.199Z,11.52
2019-05-15T22:38:34.322Z,11.50
2019-05-15T22:41:04.487Z,11.48
2019-05-15T22:43:36.094Z,11.41
2019-05-15T22:46:07.755Z,11.30
2019-05-15T22:48:38.190Z,11.20
2019-05-15T22:51:09.251Z,11.11
2019-05-15T22:53:39.748Z,11.02
2019-05-15T22:56:09.910Z,10.95
2019-05-15T22:58:40.068Z,11.14
2019-05-15T23:01:10.271Z,11.07
2019-05-15T23:03:40.436Z,11.10
2019-05-15T23:06:10.650Z,10.91
2019-05-15T23:08:40.811Z,10.93
2019-05-15T23:11:10.940Z,10.71
2019-05-15T23:13:41.124Z,10.50
2019-05-15T23:16:11.230Z,10.61
2019-05-15T23:18:41.694Z,10.49
2019-05-15T23:21:12.940Z,10.35
2019-05-15T23:23:44.926Z,10.22
2019-05-15T23:26:15.152Z,10.23
2019-05-15T23:28:45.286Z,10.24
2019-05-15T23:31:15.392Z,10.25
2019-05-15T23:33:45.516Z,10.33
2019-05-15T23:36:17.900Z,10.28
2019-05-15T23:38:48.131Z,10.15
2019-05-15T23:41:18.876Z,10.24
2019-05-15T23:43:49.242Z,10.26
2019-05-15T23:46:19.338Z,10.27
2019-05-15T23:48:49.460Z,10.24
2019-05-15T23:51:19.556Z,10.33
2019-05-15T23:53:49.702Z,10.19
2019-05-15T23:56:19.835Z,10.16
2019-05-15T23:58:50.180Z,10.20
